This is the latest recevied weather packets stored in our database for station/object IN3MWE-10. If no packets are shown the sender has not sent any weather packets the latest 10 day(s).
| Time | Temp. | Humidity | Pressure | Rain* | Wind** | Luminosity | Snow |
|---|---|---|---|---|---|---|---|
| 1777700114 | 10° C | 61% | 991.8 hPa | - | - | - | - |
| 1777699214 | 9.44° C | 62% | 991.7 hPa | - | - | - | - |
| 1777698314 | 9.44° C | 60% | 991.8 hPa | - | - | - | - |
| 1777697414 | 9.44° C | 61% | 991.7 hPa | - | - | - | - |
| 1777696514 | 9.44° C | 60% | 991.6 hPa | - | - | - | - |
| 1777695614 | 10° C | 58% | 991.5 hPa | - | - | - | - |
| 1777694714 | 10° C | 58% | 991.5 hPa | - | - | - | - |
| 1777693813 | 9.44° C | 60% | 991.5 hPa | - | - | - | - |
| 1777692913 | 10° C | 57% | 991.4 hPa | - | - | - | - |
| 1777692013 | 10° C | 56% | 991.3 hPa | - | - | - | - |
| 1777691112 | 10° C | 55% | 991.2 hPa | - | - | - | - |
| 1777690227 | 10.56° C | 54% | 991.1 hPa | - | - | - | - |
| 1777689327 | 10.56° C | 54% | 991.1 hPa | - | - | - | - |
| 1777688427 | 10.56° C | 54% | 990.9 hPa | - | - | - | - |
| 1777687527 | 11.11° C | 52% | 991 hPa | - | - | - | - |
| 1777686627 | 11.11° C | 51% | 990.9 hPa | - | - | - | - |
| 1777685727 | 11.11° C | 52% | 990.9 hPa | - | - | - | - |
| 1777684826 | 11.67° C | 50% | 990.9 hPa | - | - | - | - |
| 1777683926 | 12.22° C | 48% | 990.9 hPa | - | - | - | - |
| 1777683026 | 12.22° C | 48% | 990.8 hPa | - | - | - | - |
| 1777682126 | 12.22° C | 47% | 990.8 hPa | - | - | - | - |
| 1777681226 | 12.22° C | 48% | 990.7 hPa | - | - | - | - |
| 1777680326 | 12.78° C | 47% | 990.7 hPa | - | - | - | - |
| 1777679426 | 12.78° C | 46% | 990.7 hPa | - | - | - | - |
| 1777678525 | 12.78° C | 46% | 990.8 hPa | - | - | - | - |
* Rain since midnight (hover to see other rain measurements)
** Current wind speed in m/s (hover to see current wind gust speed)